createdAt,value
2019-05-10T00:00:30.440Z,0.40
2019-05-10T00:10:29.635Z,0.50
2019-05-10T00:20:29.514Z,0.40
2019-05-10T00:30:29.032Z,0.60
2019-05-10T00:40:28.244Z,0.60
2019-05-10T00:50:27.460Z,0.60
2019-05-10T01:00:26.646Z,0.50
2019-05-10T01:10:26.249Z,0.60
2019-05-10T01:20:26.175Z,0.60
2019-05-10T01:30:26.432Z,0.50
2019-05-10T01:40:25.979Z,0.60
2019-05-10T01:50:25.955Z,0.80
2019-05-10T02:00:25.861Z,0.73
2019-05-10T02:10:24.996Z,0.63
2019-05-10T02:54:21.108Z,0.50
2019-05-10T03:04:24.049Z,0.50
2019-05-10T03:37:34.952Z,0.57
2019-05-10T03:47:54.330Z,0.80
2019-05-10T03:57:54.061Z,0.63
2019-05-10T04:07:54.226Z,0.60
2019-05-10T04:17:54.155Z,0.93
2019-05-10T04:27:54.337Z,0.83
2019-05-10T04:37:54.499Z,0.87
2019-05-10T04:47:54.694Z,0.80
2019-05-10T04:57:54.714Z,0.80
2019-05-10T05:07:54.988Z,0.80
2019-05-10T05:17:54.973Z,0.70
2019-05-10T05:28:07.469Z,1.00
2019-05-10T05:37:56.042Z,0.97
2019-05-10T05:47:55.817Z,0.90
2019-05-10T05:57:59.285Z,0.90
2019-05-10T06:07:55.982Z,0.80
2019-05-10T06:17:57.481Z,0.73
2019-05-10T06:27:55.280Z,0.87
2019-05-10T06:37:55.202Z,1.00
2019-05-10T06:47:56.380Z,1.10
2019-05-10T06:58:00.505Z,0.80
2019-05-10T07:08:00.632Z,1.67
2019-05-10T07:17:57.654Z,1.00
2019-05-10T07:27:57.760Z,0.70
2019-05-10T07:37:57.362Z,1.10
2019-05-10T07:47:57.369Z,1.07
2019-05-10T07:57:59.071Z,0.97
2019-05-10T08:07:58.980Z,1.10
2019-05-10T08:17:58.655Z,1.37
2019-05-10T08:27:58.003Z,1.30
2019-05-10T08:37:57.797Z,1.20
2019-05-10T08:48:00.872Z,1.50
2019-05-10T08:57:57.458Z,1.30
2019-05-10T09:07:57.554Z,1.20
2019-05-10T09:17:58.254Z,1.20
2019-05-10T09:28:04.531Z,1.30
2019-05-10T09:38:07.164Z,1.40
2019-05-10T09:48:15.692Z,1.30
2019-05-10T09:58:14.854Z,1.20
2019-05-10T10:08:14.569Z,1.30
2019-05-10T10:18:21.136Z,1.20
2019-05-10T10:28:19.987Z,1.40
2019-05-10T10:38:17.886Z,1.00
2019-05-10T10:48:17.871Z,1.00
2019-05-10T10:58:18.587Z,1.10
2019-05-10T11:08:15.252Z,1.23
2019-05-10T11:18:14.582Z,1.00
2019-05-10T11:28:13.899Z,0.80
2019-05-10T11:38:16.247Z,0.90
2019-05-10T11:48:13.472Z,1.23
2019-05-10T11:58:13.432Z,0.80
2019-05-10T12:08:14.369Z,1.00
2019-05-10T12:18:15.199Z,0.97
2019-05-10T12:28:24.608Z,1.20
2019-05-10T12:38:16.525Z,1.40
2019-05-10T12:48:16.411Z,1.27
2019-05-10T12:58:17.543Z,0.93
2019-05-10T13:08:17.382Z,0.80
2019-05-10T13:18:23.083Z,0.75
2019-05-10T13:28:19.085Z,0.72
2019-05-10T13:38:20.232Z,0.80
2019-05-10T13:48:19.895Z,0.72
2019-05-10T13:58:19.151Z,0.90
2019-05-10T14:08:19.212Z,0.82
2019-05-10T14:18:20.680Z,1.00
2019-05-10T14:28:21.134Z,0.90
2019-05-10T14:38:22.988Z,1.20
2019-05-10T14:48:28.154Z,0.98
2019-05-10T14:58:20.458Z,1.00
2019-05-10T15:08:20.880Z,0.82
2019-05-10T15:18:21.292Z,1.00
2019-05-10T15:28:21.397Z,1.15
2019-05-10T15:38:22.128Z,1.25
2019-05-10T15:48:22.985Z,1.33
2019-05-10T15:58:24.155Z,1.00
2019-05-10T16:08:30.523Z,1.27
2019-05-10T16:18:24.708Z,1.00
2019-05-10T16:28:23.973Z,1.30
2019-05-10T16:38:23.461Z,2.27
2019-05-10T16:48:23.602Z,1.60
2019-05-10T16:58:23.712Z,1.00
2019-05-10T17:08:24.167Z,1.10
2019-05-10T17:18:24.420Z,1.40
2019-05-10T17:28:29.586Z,1.20
2019-05-10T17:38:25.775Z,1.00
2019-05-10T17:48:25.401Z,1.17
2019-05-10T17:58:27.762Z,1.80
2019-05-10T18:08:25.694Z,1.90
2019-05-10T18:18:26.058Z,2.17
2019-05-10T18:28:26.377Z,1.60
2019-05-10T18:38:30.805Z,1.30
2019-05-10T18:48:25.855Z,2.03
2019-05-10T18:58:29.081Z,1.50
2019-05-10T19:08:27.303Z,1.80
2019-05-10T19:18:27.297Z,1.90
2019-05-10T19:28:28.522Z,1.90
2019-05-10T19:38:28.093Z,2.00
2019-05-10T19:48:35.143Z,1.90
2019-05-10T19:58:32.157Z,2.40
2019-05-10T20:08:30.102Z,5.23
2019-05-10T20:18:29.851Z,2.10
2019-05-10T20:28:29.614Z,1.90
2019-05-10T20:38:29.619Z,1.43
2019-05-10T20:48:29.426Z,1.70
2019-05-10T20:58:29.855Z,1.90
2019-05-10T21:08:30.621Z,2.00
2019-05-10T21:18:32.769Z,1.63
2019-05-10T21:28:33.763Z,1.97
2019-05-10T21:38:34.717Z,1.97
2019-05-10T21:48:34.559Z,2.20
2019-05-10T21:58:34.262Z,3.63
2019-05-10T22:08:48.362Z,2.43
2019-05-10T22:18:34.493Z,1.90
2019-05-10T22:28:34.026Z,2.73
2019-05-10T22:38:34.684Z,1.80
2019-05-10T22:48:34.452Z,1.63
2019-05-10T22:58:33.945Z,1.80
2019-05-10T23:08:34.738Z,2.90
2019-05-10T23:18:34.827Z,1.60
2019-05-10T23:28:34.825Z,1.97
2019-05-10T23:38:34.904Z,1.80
2019-05-10T23:48:34.126Z,2.90
2019-05-10T23:58:34.189Z,9.27
